sensor_id;sensor_type;location;lat;lon;timestamp;P1;P2;P0
77974;PMS5003;67164;51.202;0.278;2024-01-16T00:02:23;20;19;
77974;PMS5003;67164;51.202;0.278;2024-01-16T00:04:49;18;17;
77974;PMS5003;67164;51.202;0.278;2024-01-16T00:07:14;19;19;
77974;PMS5003;67164;51.202;0.278;2024-01-16T00:09:40;19;16;
77974;PMS5003;67164;51.202;0.278;2024-01-16T00:12:06;16;16;
77974;PMS5003;67164;51.202;0.278;2024-01-16T00:14:34;18;18;
77974;PMS5003;67164;51.202;0.278;2024-01-16T00:16:57;19;17;
77974;PMS5003;67164;51.202;0.278;2024-01-16T00:19:22;21;19;
77974;PMS5003;67164;51.202;0.278;2024-01-16T00:21:48;19;19;
77974;PMS5003;67164;51.202;0.278;2024-01-16T00:24:13;17;17;
77974;PMS5003;67164;51.202;0.278;2024-01-16T00:26:39;16;16;
77974;PMS5003;67164;51.202;0.278;2024-01-16T00:29:05;21;18;
77974;PMS5003;67164;51.202;0.278;2024-01-16T00:31:31;17;16;
77974;PMS5003;67164;51.202;0.278;2024-01-16T00:33:57;16;15;
77974;PMS5003;67164;51.202;0.278;2024-01-16T00:36:22;21;19;
77974;PMS5003;67164;51.202;0.278;2024-01-16T00:38:48;17;17;
77974;PMS5003;67164;51.202;0.278;2024-01-16T00:41:13;18;18;
77974;PMS5003;67164;51.202;0.278;2024-01-16T00:43:39;18;18;
77974;PMS5003;67164;51.202;0.278;2024-01-16T00:46:05;17;17;
77974;PMS5003;67164;51.202;0.278;2024-01-16T00:48:30;16;15;
77974;PMS5003;67164;51.202;0.278;2024-01-16T00:50:56;20;20;
77974;PMS5003;67164;51.202;0.278;2024-01-16T00:53:22;20;16;
77974;PMS5003;67164;51.202;0.278;2024-01-16T00:55:47;18;17;
77974;PMS5003;67164;51.202;0.278;2024-01-16T00:58:13;18;17;
77974;PMS5003;67164;51.202;0.278;2024-01-16T01:00:39;20;18;
77974;PMS5003;67164;51.202;0.278;2024-01-16T01:03:05;16;14;
77974;PMS5003;67164;51.202;0.278;2024-01-16T01:05:30;17;15;
77974;PMS5003;67164;51.202;0.278;2024-01-16T01:07:56;22;19;
77974;PMS5003;67164;51.202;0.278;2024-01-16T01:10:21;23;18;
77974;PMS5003;67164;51.202;0.278;2024-01-16T01:12:46;21;19;
77974;PMS5003;67164;51.202;0.278;2024-01-16T01:15:11;21;19;
77974;PMS5003;67164;51.202;0.278;2024-01-16T01:17:37;21;21;
77974;PMS5003;67164;51.202;0.278;2024-01-16T01:20:03;20;18;
77974;PMS5003;67164;51.202;0.278;2024-01-16T01:22:29;20;20;
77974;PMS5003;67164;51.202;0.278;2024-01-16T01:24:54;24;20;
77974;PMS5003;67164;51.202;0.278;2024-01-16T01:27:19;21;19;
77974;PMS5003;67164;51.202;0.278;2024-01-16T01:29:44;20;20;
77974;PMS5003;67164;51.202;0.278;2024-01-16T01:32:10;21;18;
77974;PMS5003;67164;51.202;0.278;2024-01-16T01:34:35;21;19;
77974;PMS5003;67164;51.202;0.278;2024-01-16T01:37:00;27;22;
77974;PMS5003;67164;51.202;0.278;2024-01-16T01:39:25;23;21;
77974;PMS5003;67164;51.202;0.278;2024-01-16T01:41:50;26;22;
77974;PMS5003;67164;51.202;0.278;2024-01-16T01:44:16;24;22;
77974;PMS5003;67164;51.202;0.278;2024-01-16T01:46:42;24;22;
77974;PMS5003;67164;51.202;0.278;2024-01-16T01:49:06;29;24;
77974;PMS5003;67164;51.202;0.278;2024-01-16T01:51:32;20;20;
77974;PMS5003;67164;51.202;0.278;2024-01-16T01:53:58;21;21;
77974;PMS5003;67164;51.202;0.278;2024-01-16T01:56:23;22;19;
77974;PMS5003;67164;51.202;0.278;2024-01-16T01:58:49;20;20;
77974;PMS5003;67164;51.202;0.278;2024-01-16T02:01:14;27;25;
77974;PMS5003;67164;51.202;0.278;2024-01-16T02:03:40;19;19;
77974;PMS5003;67164;51.202;0.278;2024-01-16T02:06:05;22;19;
77974;PMS5003;67164;51.202;0.278;2024-01-16T02:08:30;24;21;
77974;PMS5003;67164;51.202;0.278;2024-01-16T02:10:55;20;20;
77974;PMS5003;67164;51.202;0.278;2024-01-16T02:13:21;22;19;
77974;PMS5003;67164;51.202;0.278;2024-01-16T02:15:46;19;19;
77974;PMS5003;67164;51.202;0.278;2024-01-16T02:18:12;20;18;
77974;PMS5003;67164;51.202;0.278;2024-01-16T02:20:37;20;19;
77974;PMS5003;67164;51.202;0.278;2024-01-16T02:23:03;18;18;
77974;PMS5003;67164;51.202;0.278;2024-01-16T02:25:29;23;21;
77974;PMS5003;67164;51.202;0.278;2024-01-16T02:27:53;20;18;
77974;PMS5003;67164;51.202;0.278;2024-01-16T02:30:19;24;21;
77974;PMS5003;67164;51.202;0.278;2024-01-16T02:32:44;24;18;
77974;PMS5003;67164;51.202;0.278;2024-01-16T02:35:09;20;20;
77974;PMS5003;67164;51.202;0.278;2024-01-16T02:37:34;21;19;
77974;PMS5003;67164;51.202;0.278;2024-01-16T02:39:59;21;18;
77974;PMS5003;67164;51.202;0.278;2024-01-16T02:42:25;21;21;
77974;PMS5003;67164;51.202;0.278;2024-01-16T02:44:50;20;18;
77974;PMS5003;67164;51.202;0.278;2024-01-16T02:47:15;21;21;
77974;PMS5003;67164;51.202;0.278;2024-01-16T02:49:41;20;19;
77974;PMS5003;67164;51.202;0.278;2024-01-16T02:52:06;22;20;
77974;PMS5003;67164;51.202;0.278;2024-01-16T02:54:31;18;18;
77974;PMS5003;67164;51.202;0.278;2024-01-16T02:56:56;21;20;
77974;PMS5003;67164;51.202;0.278;2024-01-16T02:59:21;19;17;
77974;PMS5003;67164;51.202;0.278;2024-01-16T03:01:47;20;20;
77974;PMS5003;67164;51.202;0.278;2024-01-16T03:04:12;18;17;
77974;PMS5003;67164;51.202;0.278;2024-01-16T03:06:37;22;20;
77974;PMS5003;67164;51.202;0.278;2024-01-16T03:09:03;23;20;
77974;PMS5003;67164;51.202;0.278;2024-01-16T03:11:28;21;20;
77974;PMS5003;67164;51.202;0.278;2024-01-16T03:13:53;20;18;
77974;PMS5003;67164;51.202;0.278;2024-01-16T03:16:19;20;18;
77974;PMS5003;67164;51.202;0.278;2024-01-16T03:18:44;23;18;
77974;PMS5003;67164;51.202;0.278;2024-01-16T03:21:10;20;19;
77974;PMS5003;67164;51.202;0.278;2024-01-16T03:23:35;21;21;
77974;PMS5003;67164;51.202;0.278;2024-01-16T03:26:01;22;20;
77974;PMS5003;67164;51.202;0.278;2024-01-16T03:28:26;22;21;
77974;PMS5003;67164;51.202;0.278;2024-01-16T03:30:52;21;18;
77974;PMS5003;67164;51.202;0.278;2024-01-16T03:33:18;23;20;
77974;PMS5003;67164;51.202;0.278;2024-01-16T03:35:44;21;18;
77974;PMS5003;67164;51.202;0.278;2024-01-16T03:38:09;22;21;
77974;PMS5003;67164;51.202;0.278;2024-01-16T03:40:34;22;21;
77974;PMS5003;67164;51.202;0.278;2024-01-16T03:43:00;21;20;
77974;PMS5003;67164;51.202;0.278;2024-01-16T03:45:25;22;20;
77974;PMS5003;67164;51.202;0.278;2024-01-16T03:47:51;22;22;
77974;PMS5003;67164;51.202;0.278;2024-01-16T03:50:16;23;21;
77974;PMS5003;67164;51.202;0.278;2024-01-16T03:52:42;22;20;
77974;PMS5003;67164;51.202;0.278;2024-01-16T03:55:07;20;20;
77974;PMS5003;67164;51.202;0.278;2024-01-16T03:57:33;22;19;
77974;PMS5003;67164;51.202;0.278;2024-01-16T03:59:58;20;18;
77974;PMS5003;67164;51.202;0.278;2024-01-16T04:02:24;23;20;
77974;PMS5003;67164;51.202;0.278;2024-01-16T04:04:49;22;21;
77974;PMS5003;67164;51.202;0.278;2024-01-16T04:07:15;22;21;
77974;PMS5003;67164;51.202;0.278;2024-01-16T04:09:41;21;21;
77974;PMS5003;67164;51.202;0.278;2024-01-16T04:12:06;21;20;
77974;PMS5003;67164;51.202;0.278;2024-01-16T04:14:32;24;18;
77974;PMS5003;67164;51.202;0.278;2024-01-16T04:16:57;21;20;
77974;PMS5003;67164;51.202;0.278;2024-01-16T04:19:23;23;20;
77974;PMS5003;67164;51.202;0.278;2024-01-16T04:21:49;22;22;
77974;PMS5003;67164;51.202;0.278;2024-01-16T04:24:15;18;17;
77974;PMS5003;67164;51.202;0.278;2024-01-16T04:26:41;20;18;
77974;PMS5003;67164;51.202;0.278;2024-01-16T04:29:06;19;18;
77974;PMS5003;67164;51.202;0.278;2024-01-16T04:31:33;27;23;
77974;PMS5003;67164;51.202;0.278;2024-01-16T04:33:58;23;21;
77974;PMS5003;67164;51.202;0.278;2024-01-16T04:36:24;19;19;
77974;PMS5003;67164;51.202;0.278;2024-01-16T04:38:49;24;20;
77974;PMS5003;67164;51.202;0.278;2024-01-16T04:41:17;22;19;
77974;PMS5003;67164;51.202;0.278;2024-01-16T04:43:40;19;19;
77974;PMS5003;67164;51.202;0.278;2024-01-16T04:46:05;21;19;
77974;PMS5003;67164;51.202;0.278;2024-01-16T04:48:31;21;17;
77974;PMS5003;67164;51.202;0.278;2024-01-16T04:50:57;20;19;
77974;PMS5003;67164;51.202;0.278;2024-01-16T04:53:23;20;19;
77974;PMS5003;67164;51.202;0.278;2024-01-16T04:55:49;19;17;
77974;PMS5003;67164;51.202;0.278;2024-01-16T04:58:15;19;19;
77974;PMS5003;67164;51.202;0.278;2024-01-16T05:00:41;21;19;
77974;PMS5003;67164;51.202;0.278;2024-01-16T05:03:06;21;19;
77974;PMS5003;67164;51.202;0.278;2024-01-16T05:05:32;20;20;
77974;PMS5003;67164;51.202;0.278;2024-01-16T05:07:57;25;19;
77974;PMS5003;67164;51.202;0.278;2024-01-16T05:10:22;23;19;
77974;PMS5003;67164;51.202;0.278;2024-01-16T05:12:48;18;16;
77974;PMS5003;67164;51.202;0.278;2024-01-16T05:15:14;21;17;
77974;PMS5003;67164;51.202;0.278;2024-01-16T05:17:39;20;19;
77974;PMS5003;67164;51.202;0.278;2024-01-16T05:20:05;17;17;
77974;PMS5003;67164;51.202;0.278;2024-01-16T05:22:30;18;17;
77974;PMS5003;67164;51.202;0.278;2024-01-16T05:24:56;19;19;
77974;PMS5003;67164;51.202;0.278;2024-01-16T05:27:21;19;19;
77974;PMS5003;67164;51.202;0.278;2024-01-16T05:29:47;16;16;
77974;PMS5003;67164;51.202;0.278;2024-01-16T05:32:13;17;17;
77974;PMS5003;67164;51.202;0.278;2024-01-16T05:34:38;20;18;
77974;PMS5003;67164;51.202;0.278;2024-01-16T05:37:04;19;18;
77974;PMS5003;67164;51.202;0.278;2024-01-16T05:39:30;21;19;
77974;PMS5003;67164;51.202;0.278;2024-01-16T05:41:56;18;16;
77974;PMS5003;67164;51.202;0.278;2024-01-16T05:44:21;26;23;
77974;PMS5003;67164;51.202;0.278;2024-01-16T05:46:47;22;20;
77974;PMS5003;67164;51.202;0.278;2024-01-16T05:49:13;21;18;
77974;PMS5003;67164;51.202;0.278;2024-01-16T05:51:38;20;20;
77974;PMS5003;67164;51.202;0.278;2024-01-16T05:54:04;20;17;
77974;PMS5003;67164;51.202;0.278;2024-01-16T05:56:30;25;23;
77974;PMS5003;67164;51.202;0.278;2024-01-16T05:58:55;17;17;
77974;PMS5003;67164;51.202;0.278;2024-01-16T06:01:21;20;20;
77974;PMS5003;67164;51.202;0.278;2024-01-16T06:03:46;23;22;
77974;PMS5003;67164;51.202;0.278;2024-01-16T06:06:12;21;19;
77974;PMS5003;67164;51.202;0.278;2024-01-16T06:08:36;21;18;
77974;PMS5003;67164;51.202;0.278;2024-01-16T06:11:02;23;21;
77974;PMS5003;67164;51.202;0.278;2024-01-16T06:13:27;25;20;
77974;PMS5003;67164;51.202;0.278;2024-01-16T06:15:53;20;19;
77974;PMS5003;67164;51.202;0.278;2024-01-16T06:18:19;22;17;
77974;PMS5003;67164;51.202;0.278;2024-01-16T06:20:45;23;20;
77974;PMS5003;67164;51.202;0.278;2024-01-16T06:23:11;21;20;
77974;PMS5003;67164;51.202;0.278;2024-01-16T06:25:36;19;15;
77974;PMS5003;67164;51.202;0.278;2024-01-16T06:28:02;19;19;
77974;PMS5003;67164;51.202;0.278;2024-01-16T06:30:27;20;18;
77974;PMS5003;67164;51.202;0.278;2024-01-16T06:32:53;18;18;
77974;PMS5003;67164;51.202;0.278;2024-01-16T06:35:19;16;15;
77974;PMS5003;67164;51.202;0.278;2024-01-16T06:37:43;19;16;
77974;PMS5003;67164;51.202;0.278;2024-01-16T06:40:09;18;17;
77974;PMS5003;67164;51.202;0.278;2024-01-16T06:42:34;17;17;
77974;PMS5003;67164;51.202;0.278;2024-01-16T06:45:00;25;20;
77974;PMS5003;67164;51.202;0.278;2024-01-16T06:47:25;20;17;
77974;PMS5003;67164;51.202;0.278;2024-01-16T06:49:50;23;20;
77974;PMS5003;67164;51.202;0.278;2024-01-16T06:52:15;21;19;
77974;PMS5003;67164;51.202;0.278;2024-01-16T06:54:41;17;15;
77974;PMS5003;67164;51.202;0.278;2024-01-16T06:57:06;19;17;
77974;PMS5003;67164;51.202;0.278;2024-01-16T06:59:31;21;17;
77974;PMS5003;67164;51.202;0.278;2024-01-16T07:01:56;18;16;
77974;PMS5003;67164;51.202;0.278;2024-01-16T07:04:22;22;20;
77974;PMS5003;67164;51.202;0.278;2024-01-16T07:06:48;18;17;
77974;PMS5003;67164;51.202;0.278;2024-01-16T07:09:13;15;15;
77974;PMS5003;67164;51.202;0.278;2024-01-16T07:11:39;18;17;
77974;PMS5003;67164;51.202;0.278;2024-01-16T07:14:06;17;15;
77974;PMS5003;67164;51.202;0.278;2024-01-16T07:16:31;15;15;
77974;PMS5003;67164;51.202;0.278;2024-01-16T07:18:56;16;16;
77974;PMS5003;67164;51.202;0.278;2024-01-16T07:21:22;17;17;
77974;PMS5003;67164;51.202;0.278;2024-01-16T07:23:47;19;18;
77974;PMS5003;67164;51.202;0.278;2024-01-16T07:26:13;18;17;
77974;PMS5003;67164;51.202;0.278;2024-01-16T07:28:39;19;18;
77974;PMS5003;67164;51.202;0.278;2024-01-16T07:31:04;19;18;
77974;PMS5003;67164;51.202;0.278;2024-01-16T07:33:30;19;16;
77974;PMS5003;67164;51.202;0.278;2024-01-16T07:35:56;19;18;
77974;PMS5003;67164;51.202;0.278;2024-01-16T07:38:21;17;17;
77974;PMS5003;67164;51.202;0.278;2024-01-16T07:40:47;16;16;
77974;PMS5003;67164;51.202;0.278;2024-01-16T07:43:12;16;15;
77974;PMS5003;67164;51.202;0.278;2024-01-16T07:45:37;18;16;
77974;PMS5003;67164;51.202;0.278;2024-01-16T07:48:03;18;17;
77974;PMS5003;67164;51.202;0.278;2024-01-16T07:50:28;18;15;
77974;PMS5003;67164;51.202;0.278;2024-01-16T07:52:54;17;14;
77974;PMS5003;67164;51.202;0.278;2024-01-16T07:55:19;17;17;
77974;PMS5003;67164;51.202;0.278;2024-01-16T07:57:44;19;18;
77974;PMS5003;67164;51.202;0.278;2024-01-16T08:00:11;17;17;
77974;PMS5003;67164;51.202;0.278;2024-01-16T08:02:36;20;17;
77974;PMS5003;67164;51.202;0.278;2024-01-16T08:05:02;17;15;
77974;PMS5003;67164;51.202;0.278;2024-01-16T08:07:26;19;19;
77974;PMS5003;67164;51.202;0.278;2024-01-16T08:09:52;17;17;
77974;PMS5003;67164;51.202;0.278;2024-01-16T08:12:17;15;15;
77974;PMS5003;67164;51.202;0.278;2024-01-16T08:14:43;16;16;
77974;PMS5003;67164;51.202;0.278;2024-01-16T08:17:09;18;16;
77974;PMS5003;67164;51.202;0.278;2024-01-16T08:19:35;20;18;
77974;PMS5003;67164;51.202;0.278;2024-01-16T08:22:00;15;14;
77974;PMS5003;67164;51.202;0.278;2024-01-16T08:24:26;15;15;
77974;PMS5003;67164;51.202;0.278;2024-01-16T08:26:51;22;19;
77974;PMS5003;67164;51.202;0.278;2024-01-16T08:29:17;17;15;
77974;PMS5003;67164;51.202;0.278;2024-01-16T08:31:43;18;15;
77974;PMS5003;67164;51.202;0.278;2024-01-16T08:34:08;16;16;
77974;PMS5003;67164;51.202;0.278;2024-01-16T08:36:34;18;18;
77974;PMS5003;67164;51.202;0.278;2024-01-16T08:39:00;18;15;
77974;PMS5003;67164;51.202;0.278;2024-01-16T08:41:26;18;17;
77974;PMS5003;67164;51.202;0.278;2024-01-16T08:43:51;16;16;
77974;PMS5003;67164;51.202;0.278;2024-01-16T08:46:17;17;17;
77974;PMS5003;67164;51.202;0.278;2024-01-16T08:48:43;21;21;
77974;PMS5003;67164;51.202;0.278;2024-01-16T08:51:10;19;19;
77974;PMS5003;67164;51.202;0.278;2024-01-16T08:53:34;21;19;
77974;PMS5003;67164;51.202;0.278;2024-01-16T08:56:00;18;17;
77974;PMS5003;67164;51.202;0.278;2024-01-16T08:58:25;22;18;
77974;PMS5003;67164;51.202;0.278;2024-01-16T09:00:51;17;17;
77974;PMS5003;67164;51.202;0.278;2024-01-16T09:03:17;22;17;
77974;PMS5003;67164;51.202;0.278;2024-01-16T09:05:43;20;17;
77974;PMS5003;67164;51.202;0.278;2024-01-16T09:08:08;15;15;
77974;PMS5003;67164;51.202;0.278;2024-01-16T09:10:34;18;16;
77974;PMS5003;67164;51.202;0.278;2024-01-16T09:13:00;18;18;
77974;PMS5003;67164;51.202;0.278;2024-01-16T09:15:26;21;20;
77974;PMS5003;67164;51.202;0.278;2024-01-16T09:17:51;17;16;
77974;PMS5003;67164;51.202;0.278;2024-01-16T09:20:17;20;18;
77974;PMS5003;67164;51.202;0.278;2024-01-16T09:22:43;21;20;
77974;PMS5003;67164;51.202;0.278;2024-01-16T09:25:08;23;21;
77974;PMS5003;67164;51.202;0.278;2024-01-16T09:27:33;25;24;
77974;PMS5003;67164;51.202;0.278;2024-01-16T09:29:59;26;22;
77974;PMS5003;67164;51.202;0.278;2024-01-16T09:32:24;23;20;
77974;PMS5003;67164;51.202;0.278;2024-01-16T09:34:50;22;22;
77974;PMS5003;67164;51.202;0.278;2024-01-16T09:37:16;23;22;
77974;PMS5003;67164;51.202;0.278;2024-01-16T09:39:41;25;25;
77974;PMS5003;67164;51.202;0.278;2024-01-16T09:42:06;25;24;
77974;PMS5003;67164;51.202;0.278;2024-01-16T09:44:32;24;23;
77974;PMS5003;67164;51.202;0.278;2024-01-16T09:46:57;21;20;
77974;PMS5003;67164;51.202;0.278;2024-01-16T09:49:22;24;22;
77974;PMS5003;67164;51.202;0.278;2024-01-16T09:51:48;21;20;
77974;PMS5003;67164;51.202;0.278;2024-01-16T09:54:14;24;24;
77974;PMS5003;67164;51.202;0.278;2024-01-16T09:56:41;18;17;
77974;PMS5003;67164;51.202;0.278;2024-01-16T09:59:05;23;22;
77974;PMS5003;67164;51.202;0.278;2024-01-16T10:01:31;20;20;
77974;PMS5003;67164;51.202;0.278;2024-01-16T10:03:56;21;19;
77974;PMS5003;67164;51.202;0.278;2024-01-16T10:06:22;20;20;
77974;PMS5003;67164;51.202;0.278;2024-01-16T10:08:48;22;20;
77974;PMS5003;67164;51.202;0.278;2024-01-16T10:11:13;18;17;
77974;PMS5003;67164;51.202;0.278;2024-01-16T10:13:38;20;18;
77974;PMS5003;67164;51.202;0.278;2024-01-16T10:16:04;20;18;
77974;PMS5003;67164;51.202;0.278;2024-01-16T10:18:30;19;17;
77974;PMS5003;67164;51.202;0.278;2024-01-16T10:20:56;19;16;
77974;PMS5003;67164;51.202;0.278;2024-01-16T10:23:23;21;20;
77974;PMS5003;67164;51.202;0.278;2024-01-16T10:25:47;18;18;
77974;PMS5003;67164;51.202;0.278;2024-01-16T10:28:14;18;17;
77974;PMS5003;67164;51.202;0.278;2024-01-16T10:30:38;21;18;
77974;PMS5003;67164;51.202;0.278;2024-01-16T10:33:13;20;19;
77974;PMS5003;67164;51.202;0.278;2024-01-16T10:35:30;18;18;
77974;PMS5003;67164;51.202;0.278;2024-01-16T10:37:56;18;16;
77974;PMS5003;67164;51.202;0.278;2024-01-16T10:40:22;18;17;
77974;PMS5003;67164;51.202;0.278;2024-01-16T10:42:56;16;16;
77974;PMS5003;67164;51.202;0.278;2024-01-16T10:45:17;17;17;
77974;PMS5003;67164;51.202;0.278;2024-01-16T10:47:39;16;14;
77974;PMS5003;67164;51.202;0.278;2024-01-16T10:50:05;20;17;
77974;PMS5003;67164;51.202;0.278;2024-01-16T10:52:30;17;17;
77974;PMS5003;67164;51.202;0.278;2024-01-16T10:54:56;17;16;
77974;PMS5003;67164;51.202;0.278;2024-01-16T10:57:22;20;19;
77974;PMS5003;67164;51.202;0.278;2024-01-16T10:59:48;19;18;
77974;PMS5003;67164;51.202;0.278;2024-01-16T11:02:13;17;16;
77974;PMS5003;67164;51.202;0.278;2024-01-16T11:04:39;14;14;
77974;PMS5003;67164;51.202;0.278;2024-01-16T11:07:05;16;15;
77974;PMS5003;67164;51.202;0.278;2024-01-16T11:09:30;15;15;
77974;PMS5003;67164;51.202;0.278;2024-01-16T11:11:56;16;16;
77974;PMS5003;67164;51.202;0.278;2024-01-16T11:14:22;14;14;
77974;PMS5003;67164;51.202;0.278;2024-01-16T11:16:47;17;14;
77974;PMS5003;67164;51.202;0.278;2024-01-16T11:19:13;16;15;
77974;PMS5003;67164;51.202;0.278;2024-01-16T11:21:39;15;14;
77974;PMS5003;67164;51.202;0.278;2024-01-16T11:24:05;16;15;
77974;PMS5003;67164;51.202;0.278;2024-01-16T11:26:31;19;15;
77974;PMS5003;67164;51.202;0.278;2024-01-16T11:28:56;18;16;
77974;PMS5003;67164;51.202;0.278;2024-01-16T11:31:28;17;16;
77974;PMS5003;67164;51.202;0.278;2024-01-16T11:33:47;16;16;
77974;PMS5003;67164;51.202;0.278;2024-01-16T11:38:39;21;16;
77974;PMS5003;67164;51.202;0.278;2024-01-16T11:41:04;18;17;
77974;PMS5003;67164;51.202;0.278;2024-01-16T11:43:35;18;18;
77974;PMS5003;67164;51.202;0.278;2024-01-16T11:45:55;22;21;
77974;PMS5003;67164;51.202;0.278;2024-01-16T11:48:20;22;21;
77974;PMS5003;67164;51.202;0.278;2024-01-16T11:50:45;23;22;
77974;PMS5003;67164;51.202;0.278;2024-01-16T11:53:10;20;20;
77974;PMS5003;67164;51.202;0.278;2024-01-16T11:55:39;20;19;
77974;PMS5003;67164;51.202;0.278;2024-01-16T11:58:07;25;21;
77974;PMS5003;67164;51.202;0.278;2024-01-16T12:00:26;19;18;
77974;PMS5003;67164;51.202;0.278;2024-01-16T12:02:52;23;20;
77974;PMS5003;67164;51.202;0.278;2024-01-16T12:05:17;16;16;
77974;PMS5003;67164;51.202;0.278;2024-01-16T12:07:45;18;18;
77974;PMS5003;67164;51.202;0.278;2024-01-16T12:10:09;20;17;
77974;PMS5003;67164;51.202;0.278;2024-01-16T12:12:34;18;17;
77974;PMS5003;67164;51.202;0.278;2024-01-16T12:15:00;16;14;
77974;PMS5003;67164;51.202;0.278;2024-01-16T12:17:26;14;13;
77974;PMS5003;67164;51.202;0.278;2024-01-16T12:19:52;15;14;
77974;PMS5003;67164;51.202;0.278;2024-01-16T12:22:18;12;12;
77974;PMS5003;67164;51.202;0.278;2024-01-16T12:24:43;14;13;
77974;PMS5003;67164;51.202;0.278;2024-01-16T12:27:09;12;10;
77974;PMS5003;67164;51.202;0.278;2024-01-16T12:29:35;10;9;
77974;PMS5003;67164;51.202;0.278;2024-01-16T12:32:05;11;9;
77974;PMS5003;67164;51.202;0.278;2024-01-16T12:34:27;12;11;
77974;PMS5003;67164;51.202;0.278;2024-01-16T12:36:56;10;8;
77974;PMS5003;67164;51.202;0.278;2024-01-16T12:39:19;11;11;
77974;PMS5003;67164;51.202;0.278;2024-01-16T12:41:44;9;9;
77974;PMS5003;67164;51.202;0.278;2024-01-16T12:44:10;8;8;
77974;PMS5003;67164;51.202;0.278;2024-01-16T12:46:36;7;7;
77974;PMS5003;67164;51.202;0.278;2024-01-16T12:49:02;10;8;
77974;PMS5003;67164;51.202;0.278;2024-01-16T12:51:28;9;8;
77974;PMS5003;67164;51.202;0.278;2024-01-16T12:53:53;8;6;
77974;PMS5003;67164;51.202;0.278;2024-01-16T12:56:19;7;7;
77974;PMS5003;67164;51.202;0.278;2024-01-16T12:58:45;6;6;
77974;PMS5003;67164;51.202;0.278;2024-01-16T13:03:37;6;6;
77974;PMS5003;67164;51.202;0.278;2024-01-16T13:06:03;8;8;
77974;PMS5003;67164;51.202;0.278;2024-01-16T13:08:29;7;6;
77974;PMS5003;67164;51.202;0.278;2024-01-16T13:11:03;6;6;
77974;PMS5003;67164;51.202;0.278;2024-01-16T13:13:21;6;6;
77974;PMS5003;67164;51.202;0.278;2024-01-16T13:15:46;5;4;
77974;PMS5003;67164;51.202;0.278;2024-01-16T13:18:17;5;5;
77974;PMS5003;67164;51.202;0.278;2024-01-16T13:20:38;4;4;
77974;PMS5003;67164;51.202;0.278;2024-01-16T13:23:04;7;4;
77974;PMS5003;67164;51.202;0.278;2024-01-16T13:25:29;6;6;
77974;PMS5003;67164;51.202;0.278;2024-01-16T13:27:55;4;3;
77974;PMS5003;67164;51.202;0.278;2024-01-16T13:30:21;6;6;
77974;PMS5003;67164;51.202;0.278;2024-01-16T13:32:47;3;3;
77974;PMS5003;67164;51.202;0.278;2024-01-16T13:35:13;4;3;
77974;PMS5003;67164;51.202;0.278;2024-01-16T13:37:39;4;4;
77974;PMS5003;67164;51.202;0.278;2024-01-16T13:40:05;3;3;
77974;PMS5003;67164;51.202;0.278;2024-01-16T13:42:30;3;3;
77974;PMS5003;67164;51.202;0.278;2024-01-16T13:44:56;4;4;
77974;PMS5003;67164;51.202;0.278;2024-01-16T13:47:22;4;4;
77974;PMS5003;67164;51.202;0.278;2024-01-16T13:49:48;3;3;
77974;PMS5003;67164;51.202;0.278;2024-01-16T13:52:14;4;4;
77974;PMS5003;67164;51.202;0.278;2024-01-16T13:54:39;2;2;
77974;PMS5003;67164;51.202;0.278;2024-01-16T13:57:05;4;4;
77974;PMS5003;67164;51.202;0.278;2024-01-16T13:59:31;4;4;
77974;PMS5003;67164;51.202;0.278;2024-01-16T14:01:57;7;6;
77974;PMS5003;67164;51.202;0.278;2024-01-16T14:04:23;4;4;
77974;PMS5003;67164;51.202;0.278;2024-01-16T14:06:48;3;3;
77974;PMS5003;67164;51.202;0.278;2024-01-16T14:09:14;3;3;
77974;PMS5003;67164;51.202;0.278;2024-01-16T14:11:40;6;5;
77974;PMS5003;67164;51.202;0.278;2024-01-16T14:14:06;4;2;
77974;PMS5003;67164;51.202;0.278;2024-01-16T14:16:32;3;3;
77974;PMS5003;67164;51.202;0.278;2024-01-16T14:18:58;4;3;
77974;PMS5003;67164;51.202;0.278;2024-01-16T14:21:23;5;4;
77974;PMS5003;67164;51.202;0.278;2024-01-16T14:23:49;3;2;
77974;PMS5003;67164;51.202;0.278;2024-01-16T14:26:15;4;4;
77974;PMS5003;67164;51.202;0.278;2024-01-16T14:28:41;6;4;
77974;PMS5003;67164;51.202;0.278;2024-01-16T14:31:07;4;4;
77974;PMS5003;67164;51.202;0.278;2024-01-16T14:33:34;5;4;
77974;PMS5003;67164;51.202;0.278;2024-01-16T14:35:58;4;4;
77974;PMS5003;67164;51.202;0.278;2024-01-16T14:38:24;4;4;
77974;PMS5003;67164;51.202;0.278;2024-01-16T14:40:50;6;4;
77974;PMS5003;67164;51.202;0.278;2024-01-16T14:43:16;4;4;
77974;PMS5003;67164;51.202;0.278;2024-01-16T14:45:42;3;3;
77974;PMS5003;67164;51.202;0.278;2024-01-16T14:48:07;3;3;
77974;PMS5003;67164;51.202;0.278;2024-01-16T14:50:33;4;3;
77974;PMS5003;67164;51.202;0.278;2024-01-16T14:52:59;4;4;
77974;PMS5003;67164;51.202;0.278;2024-01-16T14:55:25;5;4;
77974;PMS5003;67164;51.202;0.278;2024-01-16T14:57:51;5;5;
77974;PMS5003;67164;51.202;0.278;2024-01-16T15:00:17;5;4;
77974;PMS5003;67164;51.202;0.278;2024-01-16T15:02:42;6;3;
77974;PMS5003;67164;51.202;0.278;2024-01-16T15:05:08;4;4;
77974;PMS5003;67164;51.202;0.278;2024-01-16T15:07:34;4;4;
77974;PMS5003;67164;51.202;0.278;2024-01-16T15:10:00;4;2;
77974;PMS5003;67164;51.202;0.278;2024-01-16T15:12:26;2;2;
77974;PMS5003;67164;51.202;0.278;2024-01-16T15:14:52;5;3;
77974;PMS5003;67164;51.202;0.278;2024-01-16T15:17:17;6;4;
77974;PMS5003;67164;51.202;0.278;2024-01-16T15:19:43;4;3;
77974;PMS5003;67164;51.202;0.278;2024-01-16T15:22:09;3;3;
77974;PMS5003;67164;51.202;0.278;2024-01-16T15:24:35;4;4;
77974;PMS5003;67164;51.202;0.278;2024-01-16T15:27:01;5;5;
77974;PMS5003;67164;51.202;0.278;2024-01-16T15:29:26;7;5;
77974;PMS5003;67164;51.202;0.278;2024-01-16T15:31:52;6;6;
77974;PMS5003;67164;51.202;0.278;2024-01-16T15:34:18;6;6;
77974;PMS5003;67164;51.202;0.278;2024-01-16T15:36:44;4;4;
77974;PMS5003;67164;51.202;0.278;2024-01-16T15:39:10;6;4;
77974;PMS5003;67164;51.202;0.278;2024-01-16T15:41:35;6;6;
77974;PMS5003;67164;51.202;0.278;2024-01-16T15:44:01;10;5;
77974;PMS5003;67164;51.202;0.278;2024-01-16T15:46:27;10;6;
77974;PMS5003;67164;51.202;0.278;2024-01-16T15:48:53;8;7;
77974;PMS5003;67164;51.202;0.278;2024-01-16T15:51:19;10;7;
77974;PMS5003;67164;51.202;0.278;2024-01-16T15:53:45;7;7;
77974;PMS5003;67164;51.202;0.278;2024-01-16T15:56:10;7;5;
77974;PMS5003;67164;51.202;0.278;2024-01-16T15:58:36;9;7;
77974;PMS5003;67164;51.202;0.278;2024-01-16T16:01:02;11;11;
77974;PMS5003;67164;51.202;0.278;2024-01-16T16:03:28;7;7;
77974;PMS5003;67164;51.202;0.278;2024-01-16T16:05:53;10;7;
77974;PMS5003;67164;51.202;0.278;2024-01-16T16:08:19;12;7;
77974;PMS5003;67164;51.202;0.278;2024-01-16T16:10:45;8;7;
77974;PMS5003;67164;51.202;0.278;2024-01-16T16:13:11;9;9;
77974;PMS5003;67164;51.202;0.278;2024-01-16T16:15:39;7;7;
77974;PMS5003;67164;51.202;0.278;2024-01-16T16:18:03;6;5;